Groom Creek, Arizona
Current Conditions -  °F | °C
As of 2:53 AM on Sunday 23 Nov 2014 (Local Time) from KPRC Reporting Station
Clear Clear  
Wind Chill: 40°   Ceiling: Unl
Heat Index: 45°   Visibility: 10mi
Dew Point: 25°   Wind: 10mph
Humidity: 46%   Direction: 240°WSW
Pressure: 30"   Gusts: NA
Location:  34.5368°N, 112.512°W
Report Text: KPRC 230953Z AUTO 24009KT 10SM CLR 07/M04 A3000 RMK AO2 SLP112 T00721039
Loading
Personal Weather Stations






























Interactive Weather Map New forecast layout! Learn more

10-Day Weather Forecast

Advertisements
Track Severe Weather on mobile